sensor_id;sensor_type;location;lat;lon;timestamp;temperature;humidity
13713;DHT22;6928;50.546;7.120;2023-04-06T00:00:33;3.28;73.17
13713;DHT22;6928;50.546;7.120;2023-04-06T00:03:00;3.22;73.10
13713;DHT22;6928;50.546;7.120;2023-04-06T00:05:27;3.28;72.66
13713;DHT22;6928;50.546;7.120;2023-04-06T00:07:57;3.31;72.60
13713;DHT22;6928;50.546;7.120;2023-04-06T00:10:23;3.19;73.44
13713;DHT22;6928;50.546;7.120;2023-04-06T00:12:54;3.12;73.99
13713;DHT22;6928;50.546;7.120;2023-04-06T00:15:22;3.16;73.26
13713;DHT22;6928;50.546;7.120;2023-04-06T00:17:50;2.98;74.07
13713;DHT22;6928;50.546;7.120;2023-04-06T00:20:17;3.05;73.74
13713;DHT22;6928;50.546;7.120;2023-04-06T00:22:44;3.00;73.90
13713;DHT22;6928;50.546;7.120;2023-04-06T00:25:11;3.11;73.23
13713;DHT22;6928;50.546;7.120;2023-04-06T00:27:38;3.05;73.44
13713;DHT22;6928;50.546;7.120;2023-04-06T00:30:07;2.95;73.82
13713;DHT22;6928;50.546;7.120;2023-04-06T00:32:34;2.93;73.54
13713;DHT22;6928;50.546;7.120;2023-04-06T00:35:04;2.79;74.20
13713;DHT22;6928;50.546;7.120;2023-04-06T00:37:31;2.84;73.92
13713;DHT22;6928;50.546;7.120;2023-04-06T00:39:58;2.85;73.72
13713;DHT22;6928;50.546;7.120;2023-04-06T00:42:25;2.64;74.43
13713;DHT22;6928;50.546;7.120;2023-04-06T00:44:53;2.74;74.26
13713;DHT22;6928;50.546;7.120;2023-04-06T00:47:20;2.80;74.04
13713;DHT22;6928;50.546;7.120;2023-04-06T00:49:47;2.87;73.78
13713;DHT22;6928;50.546;7.120;2023-04-06T00:52:15;2.73;74.21
13713;DHT22;6928;50.546;7.120;2023-04-06T00:54:42;2.64;74.38
13713;DHT22;6928;50.546;7.120;2023-04-06T00:57:09;2.59;74.78
13713;DHT22;6928;50.546;7.120;2023-04-06T00:59:36;2.52;74.86
13713;DHT22;6928;50.546;7.120;2023-04-06T01:02:03;2.67;74.33
13713;DHT22;6928;50.546;7.120;2023-04-06T01:04:30;2.56;74.65
13713;DHT22;6928;50.546;7.120;2023-04-06T01:06:57;2.48;74.57
13713;DHT22;6928;50.546;7.120;2023-04-06T01:09:27;2.32;75.27
13713;DHT22;6928;50.546;7.120;2023-04-06T01:11:54;2.35;75.15
13713;DHT22;6928;50.546;7.120;2023-04-06T01:14:21;2.43;74.90
13713;DHT22;6928;50.546;7.120;2023-04-06T01:16:48;2.41;75.03
13713;DHT22;6928;50.546;7.120;2023-04-06T01:19:15;2.26;75.65
13713;DHT22;6928;50.546;7.120;2023-04-06T01:21:42;2.25;76.20
13713;DHT22;6928;50.546;7.120;2023-04-06T01:24:10;2.41;75.10
13713;DHT22;6928;50.546;7.120;2023-04-06T01:26:38;2.36;74.81
13713;DHT22;6928;50.546;7.120;2023-04-06T01:29:05;2.32;74.94
13713;DHT22;6928;50.546;7.120;2023-04-06T01:31:31;2.28;75.40
13713;DHT22;6928;50.546;7.120;2023-04-06T01:33:58;2.26;75.36
13713;DHT22;6928;50.546;7.120;2023-04-06T01:36:25;2.16;75.54
13713;DHT22;6928;50.546;7.120;2023-04-06T01:38:52;2.13;75.56
13713;DHT22;6928;50.546;7.120;2023-04-06T01:41:20;2.09;75.78
13713;DHT22;6928;50.546;7.120;2023-04-06T01:43:47;2.04;76.11
13713;DHT22;6928;50.546;7.120;2023-04-06T01:46:14;2.06;75.69
13713;DHT22;6928;50.546;7.120;2023-04-06T01:48:41;1.99;76.17
13713;DHT22;6928;50.546;7.120;2023-04-06T01:51:08;2.05;75.79
13713;DHT22;6928;50.546;7.120;2023-04-06T01:53:34;1.91;75.85
13713;DHT22;6928;50.546;7.120;2023-04-06T01:56:01;1.87;76.39
13713;DHT22;6928;50.546;7.120;2023-04-06T01:58:29;1.92;76.14
13713;DHT22;6928;50.546;7.120;2023-04-06T02:00:56;1.84;76.22
13713;DHT22;6928;50.546;7.120;2023-04-06T02:03:23;1.95;75.91
13713;DHT22;6928;50.546;7.120;2023-04-06T02:05:49;1.92;75.77
13713;DHT22;6928;50.546;7.120;2023-04-06T02:08:16;1.88;76.30
13713;DHT22;6928;50.546;7.120;2023-04-06T02:10:43;1.88;76.13
13713;DHT22;6928;50.546;7.120;2023-04-06T02:13:09;1.81;76.56
13713;DHT22;6928;50.546;7.120;2023-04-06T02:15:37;1.80;76.49
13713;DHT22;6928;50.546;7.120;2023-04-06T02:18:04;1.71;76.75
13713;DHT22;6928;50.546;7.120;2023-04-06T02:20:31;1.85;76.05
13713;DHT22;6928;50.546;7.120;2023-04-06T02:22:59;1.87;75.75
13713;DHT22;6928;50.546;7.120;2023-04-06T02:25:26;1.74;75.97
13713;DHT22;6928;50.546;7.120;2023-04-06T02:27:53;1.73;76.06
13713;DHT22;6928;50.546;7.120;2023-04-06T02:30:20;1.68;76.15
13713;DHT22;6928;50.546;7.120;2023-04-06T02:32:48;1.74;75.79
13713;DHT22;6928;50.546;7.120;2023-04-06T02:35:15;1.66;75.82
13713;DHT22;6928;50.546;7.120;2023-04-06T02:37:42;1.64;75.86
13713;DHT22;6928;50.546;7.120;2023-04-06T02:40:10;1.54;76.68
13713;DHT22;6928;50.546;7.120;2023-04-06T02:42:37;1.32;77.04
13713;DHT22;6928;50.546;7.120;2023-04-06T02:45:05;1.31;77.35
13713;DHT22;6928;50.546;7.120;2023-04-06T02:47:32;1.42;77.25
13713;DHT22;6928;50.546;7.120;2023-04-06T02:50:00;1.33;77.23
13713;DHT22;6928;50.546;7.120;2023-04-06T02:52:27;1.36;77.33
13713;DHT22;6928;50.546;7.120;2023-04-06T02:54:54;1.54;76.51
13713;DHT22;6928;50.546;7.120;2023-04-06T02:57:20;1.39;76.86
13713;DHT22;6928;50.546;7.120;2023-04-06T02:59:47;1.38;76.70
13713;DHT22;6928;50.546;7.120;2023-04-06T03:02:14;1.42;76.71
13713;DHT22;6928;50.546;7.120;2023-04-06T03:04:42;1.26;77.13
13713;DHT22;6928;50.546;7.120;2023-04-06T03:07:10;1.29;77.29
13713;DHT22;6928;50.546;7.120;2023-04-06T03:09:37;1.15;77.30
13713;DHT22;6928;50.546;7.120;2023-04-06T03:12:05;1.16;77.53
13713;DHT22;6928;50.546;7.120;2023-04-06T03:14:31;1.26;76.95
13713;DHT22;6928;50.546;7.120;2023-04-06T03:16:58;1.19;77.12
13713;DHT22;6928;50.546;7.120;2023-04-06T03:19:25;1.22;77.16
13713;DHT22;6928;50.546;7.120;2023-04-06T03:21:52;1.19;77.25
13713;DHT22;6928;50.546;7.120;2023-04-06T03:24:20;1.11;77.47
13713;DHT22;6928;50.546;7.120;2023-04-06T03:26:47;1.15;77.11
13713;DHT22;6928;50.546;7.120;2023-04-06T03:29:13;1.12;77.26
13713;DHT22;6928;50.546;7.120;2023-04-06T03:31:40;1.09;77.28
13713;DHT22;6928;50.546;7.120;2023-04-06T03:34:07;1.06;77.52
13713;DHT22;6928;50.546;7.120;2023-04-06T03:36:34;1.01;77.73
13713;DHT22;6928;50.546;7.120;2023-04-06T03:39:01;1.02;77.53
13713;DHT22;6928;50.546;7.120;2023-04-06T03:41:29;1.11;77.54
13713;DHT22;6928;50.546;7.120;2023-04-06T03:43:56;0.96;78.32
13713;DHT22;6928;50.546;7.120;2023-04-06T03:46:23;0.91;78.17
13713;DHT22;6928;50.546;7.120;2023-04-06T03:48:50;0.96;77.78
13713;DHT22;6928;50.546;7.120;2023-04-06T03:51:16;0.92;77.79
13713;DHT22;6928;50.546;7.120;2023-04-06T03:53:43;0.92;77.85
13713;DHT22;6928;50.546;7.120;2023-04-06T03:56:10;0.89;77.83
13713;DHT22;6928;50.546;7.120;2023-04-06T03:58:38;1.06;77.10
13713;DHT22;6928;50.546;7.120;2023-04-06T04:01:04;0.92;77.96
13713;DHT22;6928;50.546;7.120;2023-04-06T04:03:31;0.91;77.60
13713;DHT22;6928;50.546;7.120;2023-04-06T04:05:58;0.89;77.82
13713;DHT22;6928;50.546;7.120;2023-04-06T04:08:25;0.94;77.67
13713;DHT22;6928;50.546;7.120;2023-04-06T04:10:51;0.89;77.78
13713;DHT22;6928;50.546;7.120;2023-04-06T04:13:18;0.87;77.85
13713;DHT22;6928;50.546;7.120;2023-04-06T04:15:47;0.85;77.71
13713;DHT22;6928;50.546;7.120;2023-04-06T04:18:13;0.85;77.81
13713;DHT22;6928;50.546;7.120;2023-04-06T04:20:40;0.57;78.47
13713;DHT22;6928;50.546;7.120;2023-04-06T04:23:07;0.70;78.77
13713;DHT22;6928;50.546;7.120;2023-04-06T04:25:34;0.77;78.18
13713;DHT22;6928;50.546;7.120;2023-04-06T04:28:00;0.73;78.43
13713;DHT22;6928;50.546;7.120;2023-04-06T04:30:27;0.73;78.74
13713;DHT22;6928;50.546;7.120;2023-04-06T04:32:56;0.71;78.40
13713;DHT22;6928;50.546;7.120;2023-04-06T04:35:22;0.88;78.60
13713;DHT22;6928;50.546;7.120;2023-04-06T04:37:49;0.71;78.73
13713;DHT22;6928;50.546;7.120;2023-04-06T04:40:16;0.71;79.49
13713;DHT22;6928;50.546;7.120;2023-04-06T04:42:42;0.74;78.87
13713;DHT22;6928;50.546;7.120;2023-04-06T04:45:10;0.77;78.71
13713;DHT22;6928;50.546;7.120;2023-04-06T04:47:37;0.68;78.53
13713;DHT22;6928;50.546;7.120;2023-04-06T04:50:06;0.60;78.76
13713;DHT22;6928;50.546;7.120;2023-04-06T04:52:33;0.60;79.13
13713;DHT22;6928;50.546;7.120;2023-04-06T04:55:00;0.50;79.37
13713;DHT22;6928;50.546;7.120;2023-04-06T04:57:26;0.60;79.14
13713;DHT22;6928;50.546;7.120;2023-04-06T04:59:53;0.54;79.06
13713;DHT22;6928;50.546;7.120;2023-04-06T05:02:20;0.61;79.02
13713;DHT22;6928;50.546;7.120;2023-04-06T05:04:47;0.52;79.32
13713;DHT22;6928;50.546;7.120;2023-04-06T05:07:15;0.67;78.66
13713;DHT22;6928;50.546;7.120;2023-04-06T05:09:44;0.57;78.85
13713;DHT22;6928;50.546;7.120;2023-04-06T05:12:10;0.71;78.60
13713;DHT22;6928;50.546;7.120;2023-04-06T05:14:37;0.82;78.33
13713;DHT22;6928;50.546;7.120;2023-04-06T05:17:04;0.88;78.24
13713;DHT22;6928;50.546;7.120;2023-04-06T05:19:31;0.57;78.79
13713;DHT22;6928;50.546;7.120;2023-04-06T05:21:57;0.63;79.19
13713;DHT22;6928;50.546;7.120;2023-04-06T05:24:26;0.73;78.89
13713;DHT22;6928;50.546;7.120;2023-04-06T05:26:53;0.80;78.71
13713;DHT22;6928;50.546;7.120;2023-04-06T05:29:20;0.73;78.35
13713;DHT22;6928;50.546;7.120;2023-04-06T05:31:47;0.73;78.84
13713;DHT22;6928;50.546;7.120;2023-04-06T05:34:14;0.77;78.81
13713;DHT22;6928;50.546;7.120;2023-04-06T05:36:41;0.80;78.77
13713;DHT22;6928;50.546;7.120;2023-04-06T05:39:07;0.80;78.87
13713;DHT22;6928;50.546;7.120;2023-04-06T05:41:36;0.92;78.47
13713;DHT22;6928;50.546;7.120;2023-04-06T05:44:02;1.02;78.29
13713;DHT22;6928;50.546;7.120;2023-04-06T05:46:29;0.98;78.49
13713;DHT22;6928;50.546;7.120;2023-04-06T05:48:56;1.03;78.85
13713;DHT22;6928;50.546;7.120;2023-04-06T05:51:23;1.13;78.74
13713;DHT22;6928;50.546;7.120;2023-04-06T05:53:50;1.09;79.59
13713;DHT22;6928;50.546;7.120;2023-04-06T05:56:17;1.32;78.50
13713;DHT22;6928;50.546;7.120;2023-04-06T05:58:45;1.42;78.56
13713;DHT22;6928;50.546;7.120;2023-04-06T06:01:12;1.44;77.82
13713;DHT22;6928;50.546;7.120;2023-04-06T06:03:39;1.39;77.96
13713;DHT22;6928;50.546;7.120;2023-04-06T06:06:06;1.47;77.87
13713;DHT22;6928;50.546;7.120;2023-04-06T06:08:33;1.57;77.54
13713;DHT22;6928;50.546;7.120;2023-04-06T06:11:02;1.62;77.60
13713;DHT22;6928;50.546;7.120;2023-04-06T06:13:28;1.88;77.76
13713;DHT22;6928;50.546;7.120;2023-04-06T06:15:57;2.01;77.76
13713;DHT22;6928;50.546;7.120;2023-04-06T06:18:23;2.11;76.65
13713;DHT22;6928;50.546;7.120;2023-04-06T06:20:50;2.12;76.44
13713;DHT22;6928;50.546;7.120;2023-04-06T06:23:17;2.08;76.27
13713;DHT22;6928;50.546;7.120;2023-04-06T06:25:43;2.29;76.36
13713;DHT22;6928;50.546;7.120;2023-04-06T06:28:10;2.19;75.86
13713;DHT22;6928;50.546;7.120;2023-04-06T06:30:37;2.11;75.79
13713;DHT22;6928;50.546;7.120;2023-04-06T06:33:05;2.26;75.55
13713;DHT22;6928;50.546;7.120;2023-04-06T06:35:31;2.48;75.43
13713;DHT22;6928;50.546;7.120;2023-04-06T06:37:58;2.59;74.68
13713;DHT22;6928;50.546;7.120;2023-04-06T06:40:25;2.74;74.65
13713;DHT22;6928;50.546;7.120;2023-04-06T06:42:52;2.71;74.65
13713;DHT22;6928;50.546;7.120;2023-04-06T06:45:19;2.62;74.61
13713;DHT22;6928;50.546;7.120;2023-04-06T06:47:46;2.63;74.78
13713;DHT22;6928;50.546;7.120;2023-04-06T06:50:14;2.69;74.44
13713;DHT22;6928;50.546;7.120;2023-04-06T06:52:41;3.02;73.74
13713;DHT22;6928;50.546;7.120;2023-04-06T06:55:09;2.54;73.20
13713;DHT22;6928;50.546;7.120;2023-04-06T06:57:37;2.97;73.36
13713;DHT22;6928;50.546;7.120;2023-04-06T07:00:05;3.18;74.14
13713;DHT22;6928;50.546;7.120;2023-04-06T07:02:34;3.32;73.11
13713;DHT22;6928;50.546;7.120;2023-04-06T07:05:02;2.70;73.95
13713;DHT22;6928;50.546;7.120;2023-04-06T07:07:31;2.95;73.51
13713;DHT22;6928;50.546;7.120;2023-04-06T07:09:58;3.39;73.08
13713;DHT22;6928;50.546;7.120;2023-04-06T07:12:25;4.01;70.71
13713;DHT22;6928;50.546;7.120;2023-04-06T07:14:52;4.20;70.61
13713;DHT22;6928;50.546;7.120;2023-04-06T07:17:19;4.33;70.60
13713;DHT22;6928;50.546;7.120;2023-04-06T07:19:45;4.42;69.37
13713;DHT22;6928;50.546;7.120;2023-04-06T07:22:12;4.48;69.46
13713;DHT22;6928;50.546;7.120;2023-04-06T07:24:40;4.08;68.02
13713;DHT22;6928;50.546;7.120;2023-04-06T07:27:07;4.63;68.58
13713;DHT22;6928;50.546;7.120;2023-04-06T07:29:34;4.86;67.30
13713;DHT22;6928;50.546;7.120;2023-04-06T07:32:01;5.22;67.56
13713;DHT22;6928;50.546;7.120;2023-04-06T07:34:28;4.86;67.53
13713;DHT22;6928;50.546;7.120;2023-04-06T07:36:54;5.43;67.46
13713;DHT22;6928;50.546;7.120;2023-04-06T07:39:22;4.72;68.18
13713;DHT22;6928;50.546;7.120;2023-04-06T07:41:50;5.10;66.64
13713;DHT22;6928;50.546;7.120;2023-04-06T07:44:17;5.03;66.64
13713;DHT22;6928;50.546;7.120;2023-04-06T07:46:44;5.42;66.40
13713;DHT22;6928;50.546;7.120;2023-04-06T07:49:10;5.41;65.33
13713;DHT22;6928;50.546;7.120;2023-04-06T07:51:38;5.49;65.86
13713;DHT22;6928;50.546;7.120;2023-04-06T07:54:05;5.90;64.80
13713;DHT22;6928;50.546;7.120;2023-04-06T07:56:32;6.79;71.93
13713;DHT22;6928;50.546;7.120;2023-04-06T07:59:00;6.51;64.12
13713;DHT22;6928;50.546;7.120;2023-04-06T08:01:28;6.07;64.63
13713;DHT22;6928;50.546;7.120;2023-04-06T08:03:55;6.21;64.02
13713;DHT22;6928;50.546;7.120;2023-04-06T08:06:22;6.13;65.01
13713;DHT22;6928;50.546;7.120;2023-04-06T08:08:49;6.25;64.64
13713;DHT22;6928;50.546;7.120;2023-04-06T08:11:16;6.42;64.32
13713;DHT22;6928;50.546;7.120;2023-04-06T08:13:42;6.62;64.18
13713;DHT22;6928;50.546;7.120;2023-04-06T08:16:10;6.64;64.36
13713;DHT22;6928;50.546;7.120;2023-04-06T08:18:37;6.95;63.63
13713;DHT22;6928;50.546;7.120;2023-04-06T08:21:05;6.75;63.91
13713;DHT22;6928;50.546;7.120;2023-04-06T08:23:31;6.99;64.28
13713;DHT22;6928;50.546;7.120;2023-04-06T08:25:58;7.21;63.62
13713;DHT22;6928;50.546;7.120;2023-04-06T08:28:25;7.26;63.69
13713;DHT22;6928;50.546;7.120;2023-04-06T08:30:52;7.58;63.87
13713;DHT22;6928;50.546;7.120;2023-04-06T08:33:20;7.34;62.98
13713;DHT22;6928;50.546;7.120;2023-04-06T08:35:47;7.83;63.08
13713;DHT22;6928;50.546;7.120;2023-04-06T08:38:13;7.89;62.36
13713;DHT22;6928;50.546;7.120;2023-04-06T08:40:40;7.89;62.53
13713;DHT22;6928;50.546;7.120;2023-04-06T08:43:13;7.86;61.78
13713;DHT22;6928;50.546;7.120;2023-04-06T08:45:41;8.30;61.60
13713;DHT22;6928;50.546;7.120;2023-04-06T08:48:08;8.27;61.68
13713;DHT22;6928;50.546;7.120;2023-04-06T08:50:38;8.57;59.95
13713;DHT22;6928;50.546;7.120;2023-04-06T08:53:06;8.68;60.63
13713;DHT22;6928;50.546;7.120;2023-04-06T08:55:35;8.88;59.56
13713;DHT22;6928;50.546;7.120;2023-04-06T08:58:02;9.33;58.78
13713;DHT22;6928;50.546;7.120;2023-04-06T09:00:29;9.18;59.39
13713;DHT22;6928;50.546;7.120;2023-04-06T09:02:57;9.62;58.28
13713;DHT22;6928;50.546;7.120;2023-04-06T09:05:25;9.68;57.68
13713;DHT22;6928;50.546;7.120;2023-04-06T09:07:54;9.84;57.55
13713;DHT22;6928;50.546;7.120;2023-04-06T09:10:21;10.16;56.41
13713;DHT22;6928;50.546;7.120;2023-04-06T09:12:51;10.08;55.99
13713;DHT22;6928;50.546;7.120;2023-04-06T09:15:19;9.87;56.43
13713;DHT22;6928;50.546;7.120;2023-04-06T09:17:46;10.23;56.16
13713;DHT22;6928;50.546;7.120;2023-04-06T09:20:13;10.34;54.92
13713;DHT22;6928;50.546;7.120;2023-04-06T09:22:43;11.23;53.72
13713;DHT22;6928;50.546;7.120;2023-04-06T09:25:19;11.20;52.51
13713;DHT22;6928;50.546;7.120;2023-04-06T09:27:49;11.53;50.95
13713;DHT22;6928;50.546;7.120;2023-04-06T09:30:24;11.39;50.90
13713;DHT22;6928;50.546;7.120;2023-04-06T09:32:54;11.70;50.70
13713;DHT22;6928;50.546;7.120;2023-04-06T09:35:23;11.81;50.44
13713;DHT22;6928;50.546;7.120;2023-04-06T09:37:52;12.11;51.57
13713;DHT22;6928;50.546;7.120;2023-04-06T09:40:22;12.22;49.76
13713;DHT22;6928;50.546;7.120;2023-04-06T09:42:50;12.15;49.81
13713;DHT22;6928;50.546;7.120;2023-04-06T09:45:20;12.27;49.85
13713;DHT22;6928;50.546;7.120;2023-04-06T09:47:47;12.39;48.69
13713;DHT22;6928;50.546;7.120;2023-04-06T09:50:15;12.35;50.46
13713;DHT22;6928;50.546;7.120;2023-04-06T09:52:47;12.15;48.54
13713;DHT22;6928;50.546;7.120;2023-04-06T09:55:23;12.46;47.92
13713;DHT22;6928;50.546;7.120;2023-04-06T09:57:58;12.70;47.13
13713;DHT22;6928;50.546;7.120;2023-04-06T10:00:32;12.53;48.19
13713;DHT22;6928;50.546;7.120;2023-04-06T10:03:08;12.67;47.86
13713;DHT22;6928;50.546;7.120;2023-04-06T10:05:46;12.59;47.54
13713;DHT22;6928;50.546;7.120;2023-04-06T10:08:14;12.57;48.25
13713;DHT22;6928;50.546;7.120;2023-04-06T10:10:43;12.48;47.49
13713;DHT22;6928;50.546;7.120;2023-04-06T10:13:11;12.39;47.63
13713;DHT22;6928;50.546;7.120;2023-04-06T10:15:38;12.75;47.78
13713;DHT22;6928;50.546;7.120;2023-04-06T10:18:06;12.44;46.68
13713;DHT22;6928;50.546;7.120;2023-04-06T10:20:39;12.50;46.83
13713;DHT22;6928;50.546;7.120;2023-04-06T10:23:11;12.48;46.67
13713;DHT22;6928;50.546;7.120;2023-04-06T10:25:53;12.60;45.75
13713;DHT22;6928;50.546;7.120;2023-04-06T10:28:20;12.59;46.16
13713;DHT22;6928;50.546;7.120;2023-04-06T10:30:48;12.57;45.79
13713;DHT22;6928;50.546;7.120;2023-04-06T10:33:18;12.59;45.98
13713;DHT22;6928;50.546;7.120;2023-04-06T10:35:45;12.88;46.01
13713;DHT22;6928;50.546;7.120;2023-04-06T10:38:12;12.80;46.26
13713;DHT22;6928;50.546;7.120;2023-04-06T10:40:41;12.96;46.07
13713;DHT22;6928;50.546;7.120;2023-04-06T10:43:12;12.90;45.47
13713;DHT22;6928;50.546;7.120;2023-04-06T10:45:40;13.06;45.05
13713;DHT22;6928;50.546;7.120;2023-04-06T10:48:15;13.31;45.26
13713;DHT22;6928;50.546;7.120;2023-04-06T10:50:43;13.30;44.54
13713;DHT22;6928;50.546;7.120;2023-04-06T10:53:09;13.24;44.22
13713;DHT22;6928;50.546;7.120;2023-04-06T10:55:39;13.15;44.55
13713;DHT22;6928;50.546;7.120;2023-04-06T10:58:06;13.34;44.43
13713;DHT22;6928;50.546;7.120;2023-04-06T11:00:35;13.35;43.96
13713;DHT22;6928;50.546;7.120;2023-04-06T11:03:01;13.23;43.26
13713;DHT22;6928;50.546;7.120;2023-04-06T11:05:28;13.34;43.70
13713;DHT22;6928;50.546;7.120;2023-04-06T11:07:56;13.38;43.68
13713;DHT22;6928;50.546;7.120;2023-04-06T11:10:22;13.38;43.35
13713;DHT22;6928;50.546;7.120;2023-04-06T11:12:53;13.13;43.23
13713;DHT22;6928;50.546;7.120;2023-04-06T11:15:21;13.28;43.46
13713;DHT22;6928;50.546;7.120;2023-04-06T11:17:49;13.38;43.13
13713;DHT22;6928;50.546;7.120;2023-04-06T11:20:16;13.38;42.65
13713;DHT22;6928;50.546;7.120;2023-04-06T11:22:50;13.69;42.65
13713;DHT22;6928;50.546;7.120;2023-04-06T11:25:18;13.35;42.08
13713;DHT22;6928;50.546;7.120;2023-04-06T11:27:46;13.28;41.31
13713;DHT22;6928;50.546;7.120;2023-04-06T11:30:13;13.61;42.22
13713;DHT22;6928;50.546;7.120;2023-04-06T11:32:41;13.67;42.45
13713;DHT22;6928;50.546;7.120;2023-04-06T11:35:19;13.65;42.64
13713;DHT22;6928;50.546;7.120;2023-04-06T11:37:45;13.78;42.87
13713;DHT22;6928;50.546;7.120;2023-04-06T11:40:12;13.90;42.66
13713;DHT22;6928;50.546;7.120;2023-04-06T11:42:39;13.93;42.51
13713;DHT22;6928;50.546;7.120;2023-04-06T11:45:07;13.89;42.90
13713;DHT22;6928;50.546;7.120;2023-04-06T11:47:36;14.04;44.08
13713;DHT22;6928;50.546;7.120;2023-04-06T11:50:07;13.99;43.54
13713;DHT22;6928;50.546;7.120;2023-04-06T11:52:36;13.83;43.33
13713;DHT22;6928;50.546;7.120;2023-04-06T11:55:11;13.79;43.56
13713;DHT22;6928;50.546;7.120;2023-04-06T11:57:39;13.87;43.88
13713;DHT22;6928;50.546;7.120;2023-04-06T12:00:08;13.86;43.67
13713;DHT22;6928;50.546;7.120;2023-04-06T12:02:35;13.61;43.30
13713;DHT22;6928;50.546;7.120;2023-04-06T12:05:04;14.03;43.69
13713;DHT22;6928;50.546;7.120;2023-04-06T12:07:32;14.16;42.63
13713;DHT22;6928;50.546;7.120;2023-04-06T12:10:01;13.82;43.29
13713;DHT22;6928;50.546;7.120;2023-04-06T12:12:29;13.61;43.08
13713;DHT22;6928;50.546;7.120;2023-04-06T12:14:56;13.75;43.23
13713;DHT22;6928;50.546;7.120;2023-04-06T12:17:23;13.86;43.48
13713;DHT22;6928;50.546;7.120;2023-04-06T12:19:50;13.86;43.86
13713;DHT22;6928;50.546;7.120;2023-04-06T12:22:17;13.72;43.74
13713;DHT22;6928;50.546;7.120;2023-04-06T12:24:44;13.71;43.28
13713;DHT22;6928;50.546;7.120;2023-04-06T12:27:12;13.52;43.36
13713;DHT22;6928;50.546;7.120;2023-04-06T12:29:39;13.54;43.40
13713;DHT22;6928;50.546;7.120;2023-04-06T12:32:06;13.42;43.86
13713;DHT22;6928;50.546;7.120;2023-04-06T12:34:33;13.58;44.02
13713;DHT22;6928;50.546;7.120;2023-04-06T12:37:00;13.75;43.99
13713;DHT22;6928;50.546;7.120;2023-04-06T12:39:27;13.72;44.02
13713;DHT22;6928;50.546;7.120;2023-04-06T12:41:54;13.61;43.70
13713;DHT22;6928;50.546;7.120;2023-04-06T12:44:23;13.66;44.03
13713;DHT22;6928;50.546;7.120;2023-04-06T12:46:49;13.69;44.43
13713;DHT22;6928;50.546;7.120;2023-04-06T12:49:16;13.65;44.55
13713;DHT22;6928;50.546;7.120;2023-04-06T12:51:44;13.72;45.07
13713;DHT22;6928;50.546;7.120;2023-04-06T12:54:11;13.61;45.02
13713;DHT22;6928;50.546;7.120;2023-04-06T12:56:38;13.49;45.12
13713;DHT22;6928;50.546;7.120;2023-04-06T12:59:04;13.46;45.53
13713;DHT22;6928;50.546;7.120;2023-04-06T13:01:33;13.30;45.84
13713;DHT22;6928;50.546;7.120;2023-04-06T13:04:00;13.20;45.73
13713;DHT22;6928;50.546;7.120;2023-04-06T13:06:27;13.15;44.34
13713;DHT22;6928;50.546;7.120;2023-04-06T13:08:54;12.97;43.30
13713;DHT22;6928;50.546;7.120;2023-04-06T13:11:20;13.11;43.73
13713;DHT22;6928;50.546;7.120;2023-04-06T13:13:49;12.81;43.91
13713;DHT22;6928;50.546;7.120;2023-04-06T13:16:16;12.83;44.51
13713;DHT22;6928;50.546;7.120;2023-04-06T13:18:44;12.57;44.24
13713;DHT22;6928;50.546;7.120;2023-04-06T13:21:13;12.70;44.29
13713;DHT22;6928;50.546;7.120;2023-04-06T13:23:41;12.65;44.67
13713;DHT22;6928;50.546;7.120;2023-04-06T13:26:08;12.66;45.65
13713;DHT22;6928;50.546;7.120;2023-04-06T13:28:36;12.57;46.19
13713;DHT22;6928;50.546;7.120;2023-04-06T13:31:03;12.53;46.75
13713;DHT22;6928;50.546;7.120;2023-04-06T13:33:30;12.55;47.36
13713;DHT22;6928;50.546;7.120;2023-04-06T13:35:58;12.50;48.37
13713;DHT22;6928;50.546;7.120;2023-04-06T13:38:25;12.63;49.22
13713;DHT22;6928;50.546;7.120;2023-04-06T13:40:52;12.50;49.80
13713;DHT22;6928;50.546;7.120;2023-04-06T13:43:19;12.52;49.89
13713;DHT22;6928;50.546;7.120;2023-04-06T13:45:49;12.36;49.73
13713;DHT22;6928;50.546;7.120;2023-04-06T13:48:16;12.28;49.99
13713;DHT22;6928;50.546;7.120;2023-04-06T13:50:44;12.20;50.64
13713;DHT22;6928;50.546;7.120;2023-04-06T13:53:12;12.20;51.27
13713;DHT22;6928;50.546;7.120;2023-04-06T13:55:40;12.24;51.86
13713;DHT22;6928;50.546;7.120;2023-04-06T13:58:07;12.32;52.24
13713;DHT22;6928;50.546;7.120;2023-04-06T14:00:34;12.35;52.80
13713;DHT22;6928;50.546;7.120;2023-04-06T14:03:01;12.42;52.60
13713;DHT22;6928;50.546;7.120;2023-04-06T14:05:31;12.29;52.67
13713;DHT22;6928;50.546;7.120;2023-04-06T14:07:58;12.15;53.03
13713;DHT22;6928;50.546;7.120;2023-04-06T14:10:26;12.14;52.94
13713;DHT22;6928;50.546;7.120;2023-04-06T14:12:53;12.18;53.39
13713;DHT22;6928;50.546;7.120;2023-04-06T14:15:21;12.32;53.16
13713;DHT22;6928;50.546;7.120;2023-04-06T14:17:49;12.53;53.69
13713;DHT22;6928;50.546;7.120;2023-04-06T14:20:16;12.22;53.48
13713;DHT22;6928;50.546;7.120;2023-04-06T14:22:43;11.95;54.20
13713;DHT22;6928;50.546;7.120;2023-04-06T14:25:10;11.90;55.08
13713;DHT22;6928;50.546;7.120;2023-04-06T14:27:39;11.81;55.39
13713;DHT22;6928;50.546;7.120;2023-04-06T14:30:07;11.65;56.16
13713;DHT22;6928;50.546;7.120;2023-04-06T14:32:34;11.45;57.10
13713;DHT22;6928;50.546;7.120;2023-04-06T14:35:02;11.49;57.53
13713;DHT22;6928;50.546;7.120;2023-04-06T14:37:29;11.52;58.16
13713;DHT22;6928;50.546;7.120;2023-04-06T14:39:56;11.36;58.39
13713;DHT22;6928;50.546;7.120;2023-04-06T14:42:22;11.34;58.71
13713;DHT22;6928;50.546;7.120;2023-04-06T14:44:50;11.42;58.90
13713;DHT22;6928;50.546;7.120;2023-04-06T14:47:19;11.29;59.18
13713;DHT22;6928;50.546;7.120;2023-04-06T14:49:47;11.08;59.95
13713;DHT22;6928;50.546;7.120;2023-04-06T14:52:13;10.88;60.88
13713;DHT22;6928;50.546;7.120;2023-04-06T14:54:40;10.98;61.42
13713;DHT22;6928;50.546;7.120;2023-04-06T14:57:07;10.97;62.22
13713;DHT22;6928;50.546;7.120;2023-04-06T14:59:34;10.95;62.00
13713;DHT22;6928;50.546;7.120;2023-04-06T15:02:03;10.89;62.95
13713;DHT22;6928;50.546;7.120;2023-04-06T15:04:30;10.94;62.97
13713;DHT22;6928;50.546;7.120;2023-04-06T15:06:56;10.98;63.66
13713;DHT22;6928;50.546;7.120;2023-04-06T15:09:23;10.71;64.40
13713;DHT22;6928;50.546;7.120;2023-04-06T15:11:50;10.83;64.74
13713;DHT22;6928;50.546;7.120;2023-04-06T15:14:17;10.80;65.07
13713;DHT22;6928;50.546;7.120;2023-04-06T15:16:43;10.66;66.17
13713;DHT22;6928;50.546;7.120;2023-04-06T15:19:11;10.67;65.92
13713;DHT22;6928;50.546;7.120;2023-04-06T15:21:38;10.46;66.65
13713;DHT22;6928;50.546;7.120;2023-04-06T15:24:05;10.39;66.05
13713;DHT22;6928;50.546;7.120;2023-04-06T15:26:35;10.41;66.92
13713;DHT22;6928;50.546;7.120;2023-04-06T15:29:02;10.56;67.49
13713;DHT22;6928;50.546;7.120;2023-04-06T15:31:29;10.29;68.50
13713;DHT22;6928;50.546;7.120;2023-04-06T15:33:57;10.02;68.47
13713;DHT22;6928;50.546;7.120;2023-04-06T15:36:27;10.06;70.21
13713;DHT22;6928;50.546;7.120;2023-04-06T15:38:56;9.97;69.97
13713;DHT22;6928;50.546;7.120;2023-04-06T15:41:23;10.12;70.39
13713;DHT22;6928;50.546;7.120;2023-04-06T15:43:51;10.02;72.27
13713;DHT22;6928;50.546;7.120;2023-04-06T15:46:19;9.89;72.24
13713;DHT22;6928;50.546;7.120;2023-04-06T15:48:46;9.82;72.78
13713;DHT22;6928;50.546;7.120;2023-04-06T15:51:13;9.78;73.91
13713;DHT22;6928;50.546;7.120;2023-04-06T15:53:42;9.82;74.18
13713;DHT22;6928;50.546;7.120;2023-04-06T15:56:09;9.97;73.56